sensor_id;sensor_type;location;lat;lon;timestamp;P1;durP1;ratioP1;P2;durP2;ratioP2
4313;SDS011;2170;48.794;9.182;2023-05-15T00:00:55;7.13;;;6.53;;
4313;SDS011;2170;48.794;9.182;2023-05-15T00:03:23;6.90;;;6.40;;
4313;SDS011;2170;48.794;9.182;2023-05-15T00:05:50;7.73;;;6.93;;
4313;SDS011;2170;48.794;9.182;2023-05-15T00:08:17;7.57;;;6.97;;
4313;SDS011;2170;48.794;9.182;2023-05-15T00:10:46;6.93;;;6.33;;
4313;SDS011;2170;48.794;9.182;2023-05-15T00:13:15;6.83;;;6.33;;
4313;SDS011;2170;48.794;9.182;2023-05-15T00:15:42;7.30;;;6.80;;
4313;SDS011;2170;48.794;9.182;2023-05-15T00:18:10;7.03;;;6.43;;
4313;SDS011;2170;48.794;9.182;2023-05-15T00:20:37;7.07;;;6.47;;
4313;SDS011;2170;48.794;9.182;2023-05-15T00:23:04;7.97;;;7.27;;
4313;SDS011;2170;48.794;9.182;2023-05-15T00:25:31;8.00;;;7.30;;
4313;SDS011;2170;48.794;9.182;2023-05-15T00:27:59;7.90;;;7.30;;
4313;SDS011;2170;48.794;9.182;2023-05-15T00:30:26;7.07;;;6.47;;
4313;SDS011;2170;48.794;9.182;2023-05-15T00:32:53;7.77;;;7.20;;
4313;SDS011;2170;48.794;9.182;2023-05-15T00:35:21;7.43;;;6.53;;
4313;SDS011;2170;48.794;9.182;2023-05-15T00:37:48;7.00;;;6.50;;
4313;SDS011;2170;48.794;9.182;2023-05-15T00:40:17;7.30;;;6.70;;
4313;SDS011;2170;48.794;9.182;2023-05-15T00:42:44;7.40;;;6.70;;
4313;SDS011;2170;48.794;9.182;2023-05-15T00:45:13;7.33;;;6.73;;
4313;SDS011;2170;48.794;9.182;2023-05-15T00:47:41;7.37;;;6.70;;
4313;SDS011;2170;48.794;9.182;2023-05-15T00:50:08;7.20;;;6.10;;
4313;SDS011;2170;48.794;9.182;2023-05-15T00:52:36;6.67;;;6.17;;
4313;SDS011;2170;48.794;9.182;2023-05-15T00:55:04;8.83;;;7.00;;
4313;SDS011;2170;48.794;9.182;2023-05-15T00:57:31;7.13;;;6.57;;
4313;SDS011;2170;48.794;9.182;2023-05-15T00:59:59;7.17;;;6.57;;
4313;SDS011;2170;48.794;9.182;2023-05-15T01:02:27;7.13;;;6.53;;
4313;SDS011;2170;48.794;9.182;2023-05-15T01:04:54;7.33;;;6.73;;
4313;SDS011;2170;48.794;9.182;2023-05-15T01:07:21;8.80;;;7.10;;
4313;SDS011;2170;48.794;9.182;2023-05-15T01:09:48;6.57;;;5.97;;
4313;SDS011;2170;48.794;9.182;2023-05-15T01:12:16;6.73;;;6.23;;
4313;SDS011;2170;48.794;9.182;2023-05-15T01:14:44;7.50;;;6.80;;
4313;SDS011;2170;48.794;9.182;2023-05-15T01:17:11;6.90;;;6.30;;
4313;SDS011;2170;48.794;9.182;2023-05-15T01:19:39;6.97;;;6.47;;
4313;SDS011;2170;48.794;9.182;2023-05-15T01:22:13;7.90;;;6.80;;
4313;SDS011;2170;48.794;9.182;2023-05-15T01:27:32;7.70;;;7.10;;
4313;SDS011;2170;48.794;9.182;2023-05-15T01:30:03;7.37;;;6.77;;
4313;SDS011;2170;48.794;9.182;2023-05-15T01:32:42;6.87;;;6.27;;
4313;SDS011;2170;48.794;9.182;2023-05-15T01:35:13;7.07;;;6.57;;
4313;SDS011;2170;48.794;9.182;2023-05-15T01:37:43;7.43;;;6.87;;
4313;SDS011;2170;48.794;9.182;2023-05-15T01:40:13;7.83;;;7.17;;
4313;SDS011;2170;48.794;9.182;2023-05-15T01:42:50;7.40;;;6.80;;
4313;SDS011;2170;48.794;9.182;2023-05-15T01:45:20;8.00;;;7.30;;
4313;SDS011;2170;48.794;9.182;2023-05-15T01:47:47;7.93;;;7.23;;
4313;SDS011;2170;48.794;9.182;2023-05-15T01:50:15;7.77;;;7.07;;
4313;SDS011;2170;48.794;9.182;2023-05-15T01:52:43;8.00;;;7.30;;
4313;SDS011;2170;48.794;9.182;2023-05-15T01:55:11;7.70;;;7.10;;
4313;SDS011;2170;48.794;9.182;2023-05-15T01:57:40;8.00;;;7.30;;
4313;SDS011;2170;48.794;9.182;2023-05-15T02:00:09;8.03;;;7.30;;
4313;SDS011;2170;48.794;9.182;2023-05-15T02:02:37;7.87;;;7.27;;
4313;SDS011;2170;48.794;9.182;2023-05-15T02:05:05;8.17;;;7.47;;
4313;SDS011;2170;48.794;9.182;2023-05-15T02:07:33;7.93;;;7.33;;
4313;SDS011;2170;48.794;9.182;2023-05-15T02:10:00;8.33;;;7.63;;
4313;SDS011;2170;48.794;9.182;2023-05-15T02:12:27;8.30;;;7.60;;
4313;SDS011;2170;48.794;9.182;2023-05-15T02:14:54;8.37;;;7.67;;
4313;SDS011;2170;48.794;9.182;2023-05-15T02:17:25;7.90;;;7.30;;
4313;SDS011;2170;48.794;9.182;2023-05-15T02:19:53;9.20;;;8.40;;
4313;SDS011;2170;48.794;9.182;2023-05-15T02:22:20;8.10;;;7.40;;
4313;SDS011;2170;48.794;9.182;2023-05-15T02:24:47;9.10;;;8.30;;
4313;SDS011;2170;48.794;9.182;2023-05-15T02:27:16;9.13;;;8.33;;
4313;SDS011;2170;48.794;9.182;2023-05-15T02:32:34;8.97;;;8.17;;
4313;SDS011;2170;48.794;9.182;2023-05-15T02:35:06;9.83;;;8.90;;
4313;SDS011;2170;48.794;9.182;2023-05-15T02:37:37;9.40;;;8.60;;
4313;SDS011;2170;48.794;9.182;2023-05-15T02:40:06;9.30;;;8.40;;
4313;SDS011;2170;48.794;9.182;2023-05-15T02:42:34;9.27;;;8.47;;
4313;SDS011;2170;48.794;9.182;2023-05-15T02:45:02;7.60;;;6.90;;
4313;SDS011;2170;48.794;9.182;2023-05-15T02:47:29;7.60;;;7.00;;
4313;SDS011;2170;48.794;9.182;2023-05-15T02:49:58;7.40;;;6.80;;
4313;SDS011;2170;48.794;9.182;2023-05-15T02:52:25;7.07;;;6.57;;
4313;SDS011;2170;48.794;9.182;2023-05-15T02:54:52;7.13;;;6.43;;
4313;SDS011;2170;48.794;9.182;2023-05-15T02:57:19;7.47;;;6.87;;
4313;SDS011;2170;48.794;9.182;2023-05-15T02:59:46;7.67;;;6.70;;
4313;SDS011;2170;48.794;9.182;2023-05-15T03:02:13;7.07;;;6.47;;
4313;SDS011;2170;48.794;9.182;2023-05-15T03:04:40;7.37;;;6.77;;
4313;SDS011;2170;48.794;9.182;2023-05-15T03:07:09;7.70;;;7.10;;
4313;SDS011;2170;48.794;9.182;2023-05-15T03:09:36;7.40;;;6.70;;
4313;SDS011;2170;48.794;9.182;2023-05-15T03:12:03;9.30;;;6.47;;
4313;SDS011;2170;48.794;9.182;2023-05-15T03:14:30;7.73;;;7.03;;
4313;SDS011;2170;48.794;9.182;2023-05-15T03:16:57;7.00;;;6.40;;
4313;SDS011;2170;48.794;9.182;2023-05-15T03:19:24;7.67;;;7.07;;
4313;SDS011;2170;48.794;9.182;2023-05-15T03:21:51;7.13;;;6.43;;
4313;SDS011;2170;48.794;9.182;2023-05-15T03:24:20;6.70;;;6.20;;
4313;SDS011;2170;48.794;9.182;2023-05-15T03:26:47;7.33;;;6.73;;
4313;SDS011;2170;48.794;9.182;2023-05-15T03:29:14;7.60;;;7.00;;
4313;SDS011;2170;48.794;9.182;2023-05-15T03:31:41;6.67;;;6.07;;
4313;SDS011;2170;48.794;9.182;2023-05-15T03:34:08;6.87;;;6.30;;
4313;SDS011;2170;48.794;9.182;2023-05-15T03:36:35;6.97;;;6.37;;
4313;SDS011;2170;48.794;9.182;2023-05-15T03:39:02;6.20;;;5.73;;
4313;SDS011;2170;48.794;9.182;2023-05-15T03:41:31;7.53;;;6.93;;
4313;SDS011;2170;48.794;9.182;2023-05-15T03:43:58;7.63;;;6.50;;
4313;SDS011;2170;48.794;9.182;2023-05-15T03:46:25;6.80;;;6.30;;
4313;SDS011;2170;48.794;9.182;2023-05-15T03:48:52;7.70;;;7.00;;
4313;SDS011;2170;48.794;9.182;2023-05-15T03:51:20;7.47;;;6.77;;
4313;SDS011;2170;48.794;9.182;2023-05-15T03:53:47;6.87;;;6.37;;
4313;SDS011;2170;48.794;9.182;2023-05-15T03:56:14;6.97;;;6.30;;
4313;SDS011;2170;48.794;9.182;2023-05-15T03:58:43;6.90;;;6.40;;
4313;SDS011;2170;48.794;9.182;2023-05-15T04:01:10;7.37;;;6.67;;
4313;SDS011;2170;48.794;9.182;2023-05-15T04:03:37;7.57;;;6.87;;
4313;SDS011;2170;48.794;9.182;2023-05-15T04:06:04;6.67;;;6.17;;
4313;SDS011;2170;48.794;9.182;2023-05-15T04:08:31;7.70;;;7.00;;
4313;SDS011;2170;48.794;9.182;2023-05-15T04:10:58;7.60;;;6.90;;
4313;SDS011;2170;48.794;9.182;2023-05-15T04:13:25;8.03;;;7.33;;
4313;SDS011;2170;48.794;9.182;2023-05-15T04:15:54;8.10;;;7.30;;
4313;SDS011;2170;48.794;9.182;2023-05-15T04:18:22;7.53;;;6.93;;
4313;SDS011;2170;48.794;9.182;2023-05-15T04:20:49;8.03;;;7.23;;
4313;SDS011;2170;48.794;9.182;2023-05-15T04:23:16;7.30;;;6.43;;
4313;SDS011;2170;48.794;9.182;2023-05-15T04:25:43;7.27;;;6.67;;
4313;SDS011;2170;48.794;9.182;2023-05-15T04:28:10;8.00;;;7.20;;
4313;SDS011;2170;48.794;9.182;2023-05-15T04:30:37;7.07;;;6.47;;
4313;SDS011;2170;48.794;9.182;2023-05-15T04:33:06;7.30;;;6.70;;
4313;SDS011;2170;48.794;9.182;2023-05-15T04:35:33;7.80;;;7.20;;
4313;SDS011;2170;48.794;9.182;2023-05-15T04:38:00;10.63;;;8.27;;
4313;SDS011;2170;48.794;9.182;2023-05-15T04:40:27;8.53;;;7.80;;
4313;SDS011;2170;48.794;9.182;2023-05-15T04:42:54;8.47;;;7.67;;
4313;SDS011;2170;48.794;9.182;2023-05-15T04:45:21;8.47;;;7.67;;
4313;SDS011;2170;48.794;9.182;2023-05-15T04:47:49;8.83;;;8.10;;
4313;SDS011;2170;48.794;9.182;2023-05-15T04:50:17;8.10;;;7.50;;
4313;SDS011;2170;48.794;9.182;2023-05-15T04:52:44;8.40;;;7.60;;
4313;SDS011;2170;48.794;9.182;2023-05-15T04:55:12;8.67;;;7.90;;
4313;SDS011;2170;48.794;9.182;2023-05-15T04:57:39;8.83;;;8.07;;
4313;SDS011;2170;48.794;9.182;2023-05-15T05:00:06;8.90;;;8.20;;
4313;SDS011;2170;48.794;9.182;2023-05-15T05:02:36;8.87;;;7.93;;
4313;SDS011;2170;48.794;9.182;2023-05-15T05:05:03;7.93;;;7.33;;
4313;SDS011;2170;48.794;9.182;2023-05-15T05:07:32;8.93;;;8.10;;
4313;SDS011;2170;48.794;9.182;2023-05-15T05:09:59;9.60;;;8.70;;
4313;SDS011;2170;48.794;9.182;2023-05-15T05:12:26;8.80;;;8.00;;
4313;SDS011;2170;48.794;9.182;2023-05-15T05:14:53;8.53;;;7.83;;
4313;SDS011;2170;48.794;9.182;2023-05-15T05:17:20;8.90;;;8.20;;
4313;SDS011;2170;48.794;9.182;2023-05-15T05:19:47;9.90;;;9.20;;
4313;SDS011;2170;48.794;9.182;2023-05-15T05:22:14;9.60;;;8.60;;
4313;SDS011;2170;48.794;9.182;2023-05-15T05:24:43;9.07;;;8.30;;
4313;SDS011;2170;48.794;9.182;2023-05-15T05:27:10;8.33;;;7.63;;
4313;SDS011;2170;48.794;9.182;2023-05-15T05:29:37;9.10;;;8.40;;
4313;SDS011;2170;48.794;9.182;2023-05-15T05:32:05;9.50;;;8.70;;
4313;SDS011;2170;48.794;9.182;2023-05-15T05:34:32;9.63;;;8.60;;
4313;SDS011;2170;48.794;9.182;2023-05-15T05:36:59;9.30;;;8.53;;
4313;SDS011;2170;48.794;9.182;2023-05-15T05:39:26;9.53;;;8.83;;
4313;SDS011;2170;48.794;9.182;2023-05-15T05:41:55;8.03;;;7.30;;
4313;SDS011;2170;48.794;9.182;2023-05-15T05:44:22;9.23;;;8.43;;
4313;SDS011;2170;48.794;9.182;2023-05-15T05:46:49;9.63;;;8.70;;
4313;SDS011;2170;48.794;9.182;2023-05-15T05:49:17;9.60;;;8.70;;
4313;SDS011;2170;48.794;9.182;2023-05-15T05:51:44;9.47;;;8.77;;
4313;SDS011;2170;48.794;9.182;2023-05-15T05:54:11;10.73;;;9.87;;
4313;SDS011;2170;48.794;9.182;2023-05-15T05:56:39;10.13;;;9.13;;
4313;SDS011;2170;48.794;9.182;2023-05-15T05:59:08;11.20;;;9.90;;
4313;SDS011;2170;48.794;9.182;2023-05-15T06:01:35;10.23;;;9.30;;
4313;SDS011;2170;48.794;9.182;2023-05-15T06:04:02;10.27;;;9.37;;
4313;SDS011;2170;48.794;9.182;2023-05-15T06:06:29;9.90;;;9.00;;
4313;SDS011;2170;48.794;9.182;2023-05-15T06:08:56;10.90;;;9.80;;
4313;SDS011;2170;48.794;9.182;2023-05-15T06:11:24;10.90;;;9.83;;
4313;SDS011;2170;48.794;9.182;2023-05-15T06:13:51;11.10;;;10.10;;
4313;SDS011;2170;48.794;9.182;2023-05-15T06:16:19;9.00;;;8.20;;
4313;SDS011;2170;48.794;9.182;2023-05-15T06:18:46;10.50;;;9.60;;
4313;SDS011;2170;48.794;9.182;2023-05-15T06:21:13;10.43;;;9.43;;
4313;SDS011;2170;48.794;9.182;2023-05-15T06:23:40;10.83;;;9.83;;
4313;SDS011;2170;48.794;9.182;2023-05-15T06:26:07;10.80;;;9.90;;
4313;SDS011;2170;48.794;9.182;2023-05-15T06:28:34;9.63;;;8.90;;
4313;SDS011;2170;48.794;9.182;2023-05-15T06:31:01;9.53;;;8.70;;
4313;SDS011;2170;48.794;9.182;2023-05-15T06:33:29;10.70;;;9.80;;
4313;SDS011;2170;48.794;9.182;2023-05-15T06:35:56;9.60;;;8.90;;
4313;SDS011;2170;48.794;9.182;2023-05-15T06:38:23;9.90;;;9.10;;
4313;SDS011;2170;48.794;9.182;2023-05-15T06:40:50;11.43;;;8.93;;
4313;SDS011;2170;48.794;9.182;2023-05-15T06:43:17;9.70;;;8.90;;
4313;SDS011;2170;48.794;9.182;2023-05-15T06:45:44;9.47;;;8.60;;
4313;SDS011;2170;48.794;9.182;2023-05-15T06:48:11;8.20;;;7.60;;
4313;SDS011;2170;48.794;9.182;2023-05-15T06:50:40;8.40;;;7.43;;
4313;SDS011;2170;48.794;9.182;2023-05-15T06:53:07;8.30;;;7.67;;
4313;SDS011;2170;48.794;9.182;2023-05-15T06:55:34;7.60;;;7.00;;
4313;SDS011;2170;48.794;9.182;2023-05-15T06:58:02;8.17;;;7.47;;
4313;SDS011;2170;48.794;9.182;2023-05-15T07:00:29;7.87;;;7.27;;
4313;SDS011;2170;48.794;9.182;2023-05-15T07:02:57;7.30;;;6.80;;
4313;SDS011;2170;48.794;9.182;2023-05-15T07:05:24;6.93;;;6.33;;
4313;SDS011;2170;48.794;9.182;2023-05-15T07:07:52;7.40;;;6.80;;
4313;SDS011;2170;48.794;9.182;2023-05-15T07:10:19;7.00;;;6.50;;
4313;SDS011;2170;48.794;9.182;2023-05-15T07:12:46;7.00;;;6.50;;
4313;SDS011;2170;48.794;9.182;2023-05-15T07:15:13;6.40;;;6.00;;
4313;SDS011;2170;48.794;9.182;2023-05-15T07:17:41;7.03;;;6.43;;
4313;SDS011;2170;48.794;9.182;2023-05-15T07:20:09;6.70;;;6.10;;
4313;SDS011;2170;48.794;9.182;2023-05-15T07:22:36;6.00;;;5.50;;
4313;SDS011;2170;48.794;9.182;2023-05-15T07:25:05;6.53;;;6.03;;
4313;SDS011;2170;48.794;9.182;2023-05-15T07:27:32;5.80;;;5.40;;
4313;SDS011;2170;48.794;9.182;2023-05-15T07:29:59;6.33;;;5.23;;
4313;SDS011;2170;48.794;9.182;2023-05-15T07:32:27;6.40;;;5.87;;
4313;SDS011;2170;48.794;9.182;2023-05-15T07:34:55;7.70;;;6.90;;
4313;SDS011;2170;48.794;9.182;2023-05-15T07:37:22;6.13;;;5.73;;
4313;SDS011;2170;48.794;9.182;2023-05-15T07:39:49;5.90;;;5.50;;
4313;SDS011;2170;48.794;9.182;2023-05-15T07:42:18;6.07;;;5.47;;
4313;SDS011;2170;48.794;9.182;2023-05-15T07:44:45;5.63;;;5.23;;
4313;SDS011;2170;48.794;9.182;2023-05-15T07:47:12;6.93;;;6.33;;
4313;SDS011;2170;48.794;9.182;2023-05-15T07:49:39;6.53;;;6.13;;
4313;SDS011;2170;48.794;9.182;2023-05-15T07:52:06;7.00;;;6.50;;
4313;SDS011;2170;48.794;9.182;2023-05-15T07:54:33;6.17;;;5.67;;
4313;SDS011;2170;48.794;9.182;2023-05-15T07:57:00;5.97;;;5.57;;
4313;SDS011;2170;48.794;9.182;2023-05-15T07:59:28;5.57;;;5.27;;
4313;SDS011;2170;48.794;9.182;2023-05-15T08:01:55;5.87;;;5.47;;
4313;SDS011;2170;48.794;9.182;2023-05-15T08:04:22;5.90;;;5.50;;
4313;SDS011;2170;48.794;9.182;2023-05-15T08:06:49;5.67;;;5.30;;
4313;SDS011;2170;48.794;9.182;2023-05-15T08:09:16;4.23;;;4.03;;
4313;SDS011;2170;48.794;9.182;2023-05-15T08:11:44;4.77;;;4.43;;
4313;SDS011;2170;48.794;9.182;2023-05-15T08:14:11;5.30;;;4.80;;
4313;SDS011;2170;48.794;9.182;2023-05-15T08:16:39;4.50;;;4.20;;
4313;SDS011;2170;48.794;9.182;2023-05-15T08:19:06;4.87;;;4.57;;
4313;SDS011;2170;48.794;9.182;2023-05-15T08:21:34;5.47;;;5.07;;
4313;SDS011;2170;48.794;9.182;2023-05-15T08:24:01;4.97;;;4.47;;
4313;SDS011;2170;48.794;9.182;2023-05-15T08:26:28;5.17;;;4.67;;
4313;SDS011;2170;48.794;9.182;2023-05-15T08:28:55;7.10;;;4.70;;
4313;SDS011;2170;48.794;9.182;2023-05-15T08:31:22;4.97;;;4.57;;
4313;SDS011;2170;48.794;9.182;2023-05-15T08:33:50;5.00;;;4.60;;
4313;SDS011;2170;48.794;9.182;2023-05-15T08:36:18;4.90;;;4.60;;
4313;SDS011;2170;48.794;9.182;2023-05-15T08:38:45;4.90;;;4.00;;
4313;SDS011;2170;48.794;9.182;2023-05-15T08:41:15;4.40;;;4.10;;
4313;SDS011;2170;48.794;9.182;2023-05-15T08:43:47;5.07;;;4.77;;
4313;SDS011;2170;48.794;9.182;2023-05-15T08:46:15;3.80;;;3.60;;
4313;SDS011;2170;48.794;9.182;2023-05-15T08:48:43;4.67;;;4.37;;
4313;SDS011;2170;48.794;9.182;2023-05-15T08:51:11;4.27;;;4.00;;
4313;SDS011;2170;48.794;9.182;2023-05-15T08:53:39;4.53;;;4.13;;
4313;SDS011;2170;48.794;9.182;2023-05-15T08:56:06;5.20;;;4.80;;
4313;SDS011;2170;48.794;9.182;2023-05-15T08:58:33;5.20;;;4.80;;
4313;SDS011;2170;48.794;9.182;2023-05-15T09:01:00;4.27;;;4.07;;
4313;SDS011;2170;48.794;9.182;2023-05-15T09:03:28;6.07;;;4.83;;
4313;SDS011;2170;48.794;9.182;2023-05-15T09:05:56;5.00;;;4.50;;
4313;SDS011;2170;48.794;9.182;2023-05-15T09:08:25;4.77;;;4.47;;
4313;SDS011;2170;48.794;9.182;2023-05-15T09:10:54;6.43;;;5.07;;
4313;SDS011;2170;48.794;9.182;2023-05-15T09:13:22;5.03;;;4.73;;
4313;SDS011;2170;48.794;9.182;2023-05-15T09:15:49;6.30;;;5.87;;
4313;SDS011;2170;48.794;9.182;2023-05-15T09:18:16;5.17;;;4.87;;
4313;SDS011;2170;48.794;9.182;2023-05-15T09:20:43;5.37;;;4.97;;
4313;SDS011;2170;48.794;9.182;2023-05-15T09:23:21;5.00;;;4.70;;
4313;SDS011;2170;48.794;9.182;2023-05-15T09:25:49;5.27;;;4.97;;
4313;SDS011;2170;48.794;9.182;2023-05-15T09:28:26;5.70;;;5.20;;
4313;SDS011;2170;48.794;9.182;2023-05-15T09:30:58;5.70;;;5.00;;
4313;SDS011;2170;48.794;9.182;2023-05-15T09:33:30;4.63;;;4.33;;
4313;SDS011;2170;48.794;9.182;2023-05-15T09:35:57;5.63;;;5.23;;
4313;SDS011;2170;48.794;9.182;2023-05-15T09:38:24;4.70;;;4.40;;
4313;SDS011;2170;48.794;9.182;2023-05-15T09:41:00;5.03;;;4.60;;
4313;SDS011;2170;48.794;9.182;2023-05-15T09:43:28;4.70;;;4.40;;
4313;SDS011;2170;48.794;9.182;2023-05-15T09:45:55;4.93;;;4.50;;
4313;SDS011;2170;48.794;9.182;2023-05-15T09:48:22;5.00;;;4.60;;
4313;SDS011;2170;48.794;9.182;2023-05-15T09:50:49;5.20;;;4.80;;
4313;SDS011;2170;48.794;9.182;2023-05-15T09:53:17;5.17;;;4.77;;
4313;SDS011;2170;48.794;9.182;2023-05-15T09:55:44;4.43;;;4.13;;
4313;SDS011;2170;48.794;9.182;2023-05-15T09:58:15;6.27;;;4.53;;
4313;SDS011;2170;48.794;9.182;2023-05-15T10:00:43;5.07;;;4.67;;
4313;SDS011;2170;48.794;9.182;2023-05-15T10:03:10;5.17;;;4.70;;
4313;SDS011;2170;48.794;9.182;2023-05-15T10:05:38;5.87;;;5.00;;
4313;SDS011;2170;48.794;9.182;2023-05-15T10:08:05;5.00;;;4.70;;
4313;SDS011;2170;48.794;9.182;2023-05-15T10:10:32;4.47;;;4.10;;
4313;SDS011;2170;48.794;9.182;2023-05-15T10:12:59;4.13;;;3.70;;
4313;SDS011;2170;48.794;9.182;2023-05-15T10:15:30;4.20;;;3.90;;
4313;SDS011;2170;48.794;9.182;2023-05-15T10:17:57;4.23;;;4.00;;
4313;SDS011;2170;48.794;9.182;2023-05-15T10:20:25;5.07;;;4.67;;
4313;SDS011;2170;48.794;9.182;2023-05-15T10:22:52;4.77;;;4.47;;
4313;SDS011;2170;48.794;9.182;2023-05-15T10:25:25;4.90;;;4.40;;
4313;SDS011;2170;48.794;9.182;2023-05-15T10:27:53;4.70;;;4.30;;
4313;SDS011;2170;48.794;9.182;2023-05-15T10:30:20;5.20;;;4.90;;
4313;SDS011;2170;48.794;9.182;2023-05-15T10:32:49;4.67;;;4.37;;
4313;SDS011;2170;48.794;9.182;2023-05-15T10:35:16;4.80;;;4.47;;
4313;SDS011;2170;48.794;9.182;2023-05-15T10:37:44;4.63;;;4.10;;
4313;SDS011;2170;48.794;9.182;2023-05-15T10:40:13;3.90;;;3.60;;
4313;SDS011;2170;48.794;9.182;2023-05-15T10:42:41;4.10;;;3.80;;
4313;SDS011;2170;48.794;9.182;2023-05-15T10:45:08;4.17;;;3.87;;
4313;SDS011;2170;48.794;9.182;2023-05-15T10:47:35;3.83;;;3.43;;
4313;SDS011;2170;48.794;9.182;2023-05-15T10:50:05;3.67;;;3.47;;
4313;SDS011;2170;48.794;9.182;2023-05-15T10:52:32;4.00;;;3.33;;
4313;SDS011;2170;48.794;9.182;2023-05-15T10:54:59;3.20;;;3.00;;
4313;SDS011;2170;48.794;9.182;2023-05-15T10:57:28;4.00;;;3.60;;
4313;SDS011;2170;48.794;9.182;2023-05-15T10:59:55;3.27;;;3.07;;
4313;SDS011;2170;48.794;9.182;2023-05-15T11:02:23;3.83;;;3.53;;
4313;SDS011;2170;48.794;9.182;2023-05-15T11:04:54;3.70;;;3.40;;
4313;SDS011;2170;48.794;9.182;2023-05-15T11:07:23;3.80;;;3.57;;
4313;SDS011;2170;48.794;9.182;2023-05-15T11:09:50;4.10;;;3.80;;
4313;SDS011;2170;48.794;9.182;2023-05-15T11:12:18;3.60;;;3.40;;
4313;SDS011;2170;48.794;9.182;2023-05-15T11:17:27;4.33;;;4.03;;
4313;SDS011;2170;48.794;9.182;2023-05-15T11:19:57;3.63;;;3.43;;
4313;SDS011;2170;48.794;9.182;2023-05-15T11:22:27;4.27;;;3.97;;
4313;SDS011;2170;48.794;9.182;2023-05-15T11:24:57;4.03;;;3.53;;
4313;SDS011;2170;48.794;9.182;2023-05-15T11:27:25;3.83;;;3.63;;
4313;SDS011;2170;48.794;9.182;2023-05-15T11:30:08;3.37;;;3.17;;
4313;SDS011;2170;48.794;9.182;2023-05-15T11:32:42;3.53;;;3.30;;
4313;SDS011;2170;48.794;9.182;2023-05-15T11:35:09;3.47;;;3.27;;
4313;SDS011;2170;48.794;9.182;2023-05-15T11:37:38;3.20;;;3.10;;
4313;SDS011;2170;48.794;9.182;2023-05-15T11:40:08;3.63;;;3.33;;
4313;SDS011;2170;48.794;9.182;2023-05-15T11:42:38;5.50;;;3.33;;
4313;SDS011;2170;48.794;9.182;2023-05-15T11:45:06;3.80;;;3.50;;
4313;SDS011;2170;48.794;9.182;2023-05-15T11:47:34;3.70;;;3.50;;
4313;SDS011;2170;48.794;9.182;2023-05-15T11:50:02;3.40;;;3.23;;
4313;SDS011;2170;48.794;9.182;2023-05-15T11:52:29;3.40;;;3.20;;
4313;SDS011;2170;48.794;9.182;2023-05-15T11:54:59;3.53;;;3.33;;
4313;SDS011;2170;48.794;9.182;2023-05-15T11:57:26;3.93;;;3.73;;
4313;SDS011;2170;48.794;9.182;2023-05-15T11:59:53;3.77;;;3.57;;
4313;SDS011;2170;48.794;9.182;2023-05-15T12:02:20;3.60;;;3.40;;
4313;SDS011;2170;48.794;9.182;2023-05-15T12:04:48;3.70;;;3.40;;
4313;SDS011;2170;48.794;9.182;2023-05-15T12:07:16;4.20;;;3.90;;
4313;SDS011;2170;48.794;9.182;2023-05-15T12:09:43;4.10;;;3.73;;
4313;SDS011;2170;48.794;9.182;2023-05-15T12:12:17;3.73;;;3.53;;
4313;SDS011;2170;48.794;9.182;2023-05-15T12:14:45;3.80;;;3.57;;
4313;SDS011;2170;48.794;9.182;2023-05-15T12:17:12;4.03;;;3.73;;
4313;SDS011;2170;48.794;9.182;2023-05-15T12:19:39;3.77;;;3.57;;
4313;SDS011;2170;48.794;9.182;2023-05-15T12:22:07;3.37;;;3.17;;
4313;SDS011;2170;48.794;9.182;2023-05-15T12:24:36;3.40;;;3.20;;
4313;SDS011;2170;48.794;9.182;2023-05-15T12:27:03;3.50;;;3.30;;
4313;SDS011;2170;48.794;9.182;2023-05-15T12:29:32;4.13;;;3.83;;
4313;SDS011;2170;48.794;9.182;2023-05-15T12:31:59;3.60;;;3.40;;
4313;SDS011;2170;48.794;9.182;2023-05-15T12:34:26;4.17;;;3.87;;
4313;SDS011;2170;48.794;9.182;2023-05-15T12:36:53;3.50;;;3.30;;
4313;SDS011;2170;48.794;9.182;2023-05-15T12:39:23;3.20;;;2.97;;
4313;SDS011;2170;48.794;9.182;2023-05-15T12:41:50;3.27;;;3.07;;
4313;SDS011;2170;48.794;9.182;2023-05-15T12:44:18;3.63;;;3.33;;
4313;SDS011;2170;48.794;9.182;2023-05-15T12:46:46;4.30;;;4.10;;
4313;SDS011;2170;48.794;9.182;2023-05-15T12:49:19;3.90;;;3.60;;
4313;SDS011;2170;48.794;9.182;2023-05-15T12:51:46;3.77;;;3.57;;
4313;SDS011;2170;48.794;9.182;2023-05-15T12:54:17;3.47;;;3.27;;
4313;SDS011;2170;48.794;9.182;2023-05-15T12:56:44;3.70;;;3.40;;
4313;SDS011;2170;48.794;9.182;2023-05-15T12:59:11;4.27;;;3.90;;
4313;SDS011;2170;48.794;9.182;2023-05-15T13:01:38;3.97;;;3.70;;
4313;SDS011;2170;48.794;9.182;2023-05-15T13:04:07;3.83;;;3.43;;
4313;SDS011;2170;48.794;9.182;2023-05-15T13:06:36;3.57;;;3.27;;
4313;SDS011;2170;48.794;9.182;2023-05-15T13:09:04;2.80;;;2.70;;
4313;SDS011;2170;48.794;9.182;2023-05-15T13:11:31;3.47;;;3.27;;
4313;SDS011;2170;48.794;9.182;2023-05-15T13:13:59;3.90;;;3.60;;
4313;SDS011;2170;48.794;9.182;2023-05-15T13:16:27;3.43;;;3.23;;
4313;SDS011;2170;48.794;9.182;2023-05-15T13:18:57;4.07;;;3.87;;
4313;SDS011;2170;48.794;9.182;2023-05-15T13:21:26;3.67;;;3.47;;
4313;SDS011;2170;48.794;9.182;2023-05-15T13:23:54;4.43;;;4.07;;
4313;SDS011;2170;48.794;9.182;2023-05-15T13:26:21;4.07;;;3.77;;
4313;SDS011;2170;48.794;9.182;2023-05-15T13:28:50;3.80;;;3.60;;
4313;SDS011;2170;48.794;9.182;2023-05-15T13:31:19;5.17;;;4.77;;
4313;SDS011;2170;48.794;9.182;2023-05-15T13:33:47;4.60;;;4.20;;
4313;SDS011;2170;48.794;9.182;2023-05-15T13:36:15;4.90;;;4.60;;
4313;SDS011;2170;48.794;9.182;2023-05-15T13:38:45;4.67;;;4.37;;
4313;SDS011;2170;48.794;9.182;2023-05-15T13:41:14;4.97;;;4.67;;
4313;SDS011;2170;48.794;9.182;2023-05-15T13:43:42;4.00;;;3.80;;
4313;SDS011;2170;48.794;9.182;2023-05-15T13:46:11;5.33;;;4.90;;
4313;SDS011;2170;48.794;9.182;2023-05-15T13:48:39;5.67;;;5.23;;
4313;SDS011;2170;48.794;9.182;2023-05-15T13:51:13;5.43;;;4.90;;
4313;SDS011;2170;48.794;9.182;2023-05-15T13:53:41;5.60;;;5.20;;
4313;SDS011;2170;48.794;9.182;2023-05-15T13:56:10;5.30;;;4.90;;
4313;SDS011;2170;48.794;9.182;2023-05-15T13:58:38;6.37;;;5.93;;
4313;SDS011;2170;48.794;9.182;2023-05-15T14:01:07;5.00;;;4.60;;
4313;SDS011;2170;48.794;9.182;2023-05-15T14:03:35;5.60;;;5.20;;
4313;SDS011;2170;48.794;9.182;2023-05-15T14:06:03;4.97;;;4.67;;
4313;SDS011;2170;48.794;9.182;2023-05-15T14:08:30;5.47;;;4.97;;
4313;SDS011;2170;48.794;9.182;2023-05-15T14:10:58;4.90;;;4.50;;
4313;SDS011;2170;48.794;9.182;2023-05-15T14:13:28;5.20;;;4.90;;
4313;SDS011;2170;48.794;9.182;2023-05-15T14:15:56;5.50;;;5.20;;
4313;SDS011;2170;48.794;9.182;2023-05-15T14:18:25;5.80;;;5.40;;
4313;SDS011;2170;48.794;9.182;2023-05-15T14:20:52;5.33;;;4.93;;
4313;SDS011;2170;48.794;9.182;2023-05-15T14:23:20;4.90;;;4.60;;
4313;SDS011;2170;48.794;9.182;2023-05-15T14:25:48;5.43;;;4.97;;
4313;SDS011;2170;48.794;9.182;2023-05-15T14:28:16;4.47;;;4.17;;
4313;SDS011;2170;48.794;9.182;2023-05-15T14:30:47;4.83;;;4.53;;
4313;SDS011;2170;48.794;9.182;2023-05-15T14:33:15;5.07;;;4.77;;
4313;SDS011;2170;48.794;9.182;2023-05-15T14:35:46;5.37;;;4.87;;
4313;SDS011;2170;48.794;9.182;2023-05-15T14:38:13;5.43;;;4.90;;
4313;SDS011;2170;48.794;9.182;2023-05-15T14:40:41;6.23;;;5.40;;
4313;SDS011;2170;48.794;9.182;2023-05-15T14:43:09;7.47;;;5.23;;
4313;SDS011;2170;48.794;9.182;2023-05-15T14:45:37;5.70;;;4.90;;
4313;SDS011;2170;48.794;9.182;2023-05-15T14:48:06;5.43;;;5.13;;
4313;SDS011;2170;48.794;9.182;2023-05-15T14:50:35;5.83;;;5.33;;
4313;SDS011;2170;48.794;9.182;2023-05-15T14:53:03;5.83;;;5.43;;
4313;SDS011;2170;48.794;9.182;2023-05-15T14:55:30;5.33;;;4.93;;
4313;SDS011;2170;48.794;9.182;2023-05-15T14:57:58;5.43;;;4.90;;
4313;SDS011;2170;48.794;9.182;2023-05-15T15:00:26;6.17;;;5.77;;
4313;SDS011;2170;48.794;9.182;2023-05-15T15:02:53;5.47;;;5.17;;
4313;SDS011;2170;48.794;9.182;2023-05-15T15:05:23;4.70;;;4.40;;
4313;SDS011;2170;48.794;9.182;2023-05-15T15:07:57;4.37;;;4.07;;
4313;SDS011;2170;48.794;9.182;2023-05-15T15:10:25;4.83;;;4.43;;
4313;SDS011;2170;48.794;9.182;2023-05-15T15:12:54;5.10;;;4.63;;
4313;SDS011;2170;48.794;9.182;2023-05-15T15:15:21;6.27;;;5.50;;
4313;SDS011;2170;48.794;9.182;2023-05-15T15:17:50;4.93;;;4.53;;
4313;SDS011;2170;48.794;9.182;2023-05-15T15:20:19;5.50;;;5.00;;
4313;SDS011;2170;48.794;9.182;2023-05-15T15:22:49;3.60;;;3.40;;
4313;SDS011;2170;48.794;9.182;2023-05-15T15:25:21;3.57;;;3.27;;
4313;SDS011;2170;48.794;9.182;2023-05-15T15:27:49;2.90;;;2.70;;